createdAt,value
2022-08-19T00:01:59.357Z,100096.09
2022-08-19T00:04:32.735Z,100099.44
2022-08-19T00:07:00.972Z,100097.38
2022-08-19T00:09:29.584Z,100099.53
2022-08-19T00:11:58.854Z,100093.78
2022-08-19T00:14:27.726Z,100094.50
2022-08-19T00:16:56.196Z,100082.75
2022-08-19T00:19:24.607Z,100083.88
2022-08-19T00:21:52.690Z,100085.75
2022-08-19T00:24:21.118Z,100085.50
2022-08-19T00:26:49.495Z,100088.13
2022-08-19T00:29:19.973Z,100094.63
2022-08-19T00:31:48.488Z,100093.41
2022-08-19T00:34:18.404Z,100095.41
2022-08-19T00:36:47.078Z,100086.62
2022-08-19T00:39:17.082Z,100098.81
2022-08-19T00:41:49.295Z,100095.72
2022-08-19T00:44:27.126Z,100092.75
2022-08-19T00:46:58.734Z,100095.72
2022-08-19T00:49:43.716Z,100090.31
2022-08-19T00:52:16.094Z,100095.69
2022-08-19T00:54:47.779Z,100100.94
2022-08-19T00:57:21.252Z,100101.87
2022-08-19T01:00:01.831Z,100106.25
2022-08-19T01:02:33.337Z,100105.53
2022-08-19T01:05:09.006Z,100098.34
2022-08-19T01:07:39.833Z,100110.94
2022-08-19T01:10:13.452Z,100111.78
2022-08-19T01:12:41.457Z,100113.28
2022-08-19T01:15:12.367Z,100115.59
2022-08-19T01:17:41.909Z,100111.69
2022-08-19T01:20:11.975Z,100103.28
2022-08-19T01:22:45.843Z,100102.16
2022-08-19T01:25:19.871Z,100106.47
2022-08-19T01:27:49.765Z,100104.94
2022-08-19T01:30:26.670Z,100103.78
2022-08-19T01:32:55.837Z,100101.66
2022-08-19T01:35:27.895Z,100100.56
2022-08-19T01:37:59.943Z,100097.50
2022-08-19T01:40:31.848Z,100094.09
2022-08-19T01:43:01.724Z,100101.84
2022-08-19T01:45:31.880Z,100100.69
2022-08-19T01:48:02.313Z,100102.97
2022-08-19T01:50:33.126Z,100094.31
2022-08-19T01:53:06.815Z,100098.84
2022-08-19T01:55:41.288Z,100098.37
2022-08-19T01:58:19.880Z,100106.50
2022-08-19T02:00:48.543Z,100095.03
2022-08-19T02:03:17.225Z,100097.75
2022-08-19T02:05:46.699Z,100097.03
2022-08-19T02:08:14.407Z,100087.03
2022-08-19T02:10:44.102Z,100083.94
2022-08-19T02:13:13.405Z,100078.53
2022-08-19T02:15:41.488Z,100074.72
2022-08-19T02:18:09.903Z,100067.75
2022-08-19T02:20:39.555Z,100064.69
2022-08-19T02:23:13.430Z,100059.72
2022-08-19T02:25:46.251Z,100059.03
2022-08-19T02:28:18.310Z,100047.91
2022-08-19T02:30:48.266Z,100041.75
2022-08-19T02:33:16.753Z,100043.53
2022-08-19T02:35:46.410Z,100046.97
2022-08-19T02:38:28.295Z,100044.66
2022-08-19T02:41:03.000Z,100044.66
2022-08-19T02:43:34.602Z,100037.31
2022-08-19T02:46:03.616Z,100037.25
2022-08-19T02:48:33.948Z,100039.91
2022-08-19T02:51:01.747Z,100046.47
2022-08-19T02:53:29.962Z,100042.25
2022-08-19T02:55:58.831Z,100047.97
2022-08-19T02:58:27.825Z,100052.09
2022-08-19T03:00:57.436Z,100060.81
2022-08-19T03:03:25.866Z,100065.16
2022-08-19T03:06:14.123Z,100066.91
2022-08-19T03:08:45.393Z,100077.91
2022-08-19T03:11:19.446Z,100070.44
2022-08-19T03:13:54.470Z,100071.31
2022-08-19T03:16:24.520Z,100076.31
2022-08-19T03:18:54.128Z,100075.84
2022-08-19T03:21:25.859Z,100071.25
2022-08-19T03:23:59.121Z,100078.56
2022-08-19T03:26:27.204Z,100081.13
2022-08-19T03:28:58.567Z,100081.06
2022-08-19T03:31:44.252Z,100072.62
2022-08-19T03:34:19.806Z,100070.63
2022-08-19T03:36:48.659Z,100070.91
2022-08-19T03:39:17.546Z,100072.44
2022-08-19T03:41:48.580Z,100073.50
2022-08-19T03:44:22.805Z,100073.72
2022-08-19T03:46:54.945Z,100075.25
2022-08-19T03:49:27.135Z,100072.81
2022-08-19T03:51:58.357Z,100076.44
2022-08-19T03:54:27.033Z,100088.31
2022-08-19T03:56:57.026Z,100099.41
2022-08-19T03:59:32.665Z,100102.16
2022-08-19T04:02:03.712Z,100103.38
2022-08-19T04:04:31.939Z,100117.03
2022-08-19T04:06:59.890Z,100112.59
2022-08-19T04:09:28.120Z,100114.94
2022-08-19T04:11:57.566Z,100121.47
2022-08-19T04:14:29.484Z,100121.19
2022-08-19T04:16:59.000Z,100115.94
2022-08-19T04:19:27.941Z,100119.53
2022-08-19T04:21:55.718Z,100117.69
2022-08-19T04:24:24.200Z,100113.28
2022-08-19T04:26:52.067Z,100121.78
2022-08-19T04:29:25.944Z,100126.34
2022-08-19T04:31:56.698Z,100116.59
2022-08-19T04:34:28.032Z,100125.00
2022-08-19T04:36:58.242Z,100125.81
2022-08-19T04:39:50.037Z,100124.22
2022-08-19T04:42:37.648Z,100137.41
2022-08-19T04:45:09.432Z,100142.56
2022-08-19T04:47:48.091Z,100131.22
2022-08-19T04:50:27.726Z,100122.81
2022-08-19T04:52:56.753Z,100124.75
2022-08-19T04:55:26.745Z,100123.56
2022-08-19T04:57:57.262Z,100120.22
2022-08-19T05:00:25.288Z,100123.69
2022-08-19T05:02:53.551Z,100132.44
2022-08-19T05:05:21.918Z,100131.66
2022-08-19T05:07:50.464Z,100135.16
2022-08-19T05:10:18.332Z,100132.97
2022-08-19T05:12:46.063Z,100131.72
2022-08-19T05:15:14.129Z,100128.41
2022-08-19T05:18:01.774Z,100118.94
2022-08-19T05:20:48.505Z,100121.87
2022-08-19T05:23:21.868Z,100117.50
2022-08-19T05:25:51.647Z,100124.75
2022-08-19T05:28:21.625Z,100133.06
2022-08-19T05:30:51.597Z,100134.28
2022-08-19T05:33:19.829Z,100151.19
2022-08-19T05:35:49.366Z,100160.00
2022-08-19T05:38:18.711Z,100159.31
2022-08-19T05:40:48.061Z,100157.88
2022-08-19T05:43:19.281Z,100153.31
2022-08-19T05:45:47.247Z,100147.91
2022-08-19T05:48:15.352Z,100147.53
2022-08-19T05:50:43.545Z,100144.53
2022-08-19T05:53:11.553Z,100143.41
2022-08-19T05:55:39.811Z,100139.66
2022-08-19T05:58:10.735Z,100131.63
2022-08-19T06:00:39.233Z,100135.09
2022-08-19T06:03:12.644Z,100126.69
2022-08-19T06:05:49.754Z,100125.13
2022-08-19T06:08:34.026Z,100130.12
2022-08-19T06:11:16.594Z,100138.94
2022-08-19T06:13:51.614Z,100142.75
2022-08-19T06:16:23.417Z,100151.12
2022-08-19T06:18:52.936Z,100154.12
2022-08-19T06:21:25.927Z,100154.16
2022-08-19T06:23:55.564Z,100164.84
2022-08-19T06:26:25.242Z,100164.88
2022-08-19T06:28:53.477Z,100167.16
2022-08-19T06:31:25.133Z,100177.13
2022-08-19T06:33:53.162Z,100175.50
2022-08-19T06:36:25.281Z,100179.97
2022-08-19T06:38:54.443Z,100176.88
2022-08-19T06:41:22.457Z,100171.75
2022-08-19T06:43:50.272Z,100170.19
2022-08-19T06:46:22.790Z,100168.34
2022-08-19T06:48:50.724Z,100167.50
2022-08-19T06:51:21.999Z,100165.78
2022-08-19T06:53:54.009Z,100165.63
2022-08-19T06:56:32.831Z,100169.25
2022-08-19T06:59:02.924Z,100170.44
2022-08-19T07:01:30.708Z,100178.38
2022-08-19T07:03:58.664Z,100179.22
2022-08-19T07:06:43.366Z,100181.03
2022-08-19T07:09:18.360Z,100182.38
2022-08-19T07:11:50.303Z,100167.91
2022-08-19T07:14:20.326Z,100178.53
2022-08-19T07:16:51.136Z,100176.97
2022-08-19T07:19:20.509Z,100179.00
2022-08-19T07:21:51.532Z,100180.53
2022-08-19T07:24:21.853Z,100183.56
2022-08-19T07:26:51.692Z,100174.56
2022-08-19T07:29:21.547Z,100172.78
2022-08-19T07:31:53.091Z,100171.03
2022-08-19T07:34:22.096Z,100178.47
2022-08-19T07:36:50.980Z,100178.38
2022-08-19T07:39:32.220Z,100175.94
2022-08-19T07:42:02.005Z,100165.31
2022-08-19T07:44:30.144Z,100162.06
2022-08-19T07:46:58.702Z,100161.78
2022-08-19T07:49:26.522Z,100153.97
2022-08-19T07:51:58.078Z,100154.69
2022-08-19T07:54:28.481Z,100154.53
2022-08-19T07:56:57.080Z,100158.75
2022-08-19T07:59:25.410Z,100158.91
2022-08-19T08:01:53.678Z,100163.19
2022-08-19T08:04:40.487Z,100160.91
2022-08-19T08:07:31.496Z,100154.91
2022-08-19T08:10:02.856Z,100149.84
2022-08-19T08:12:36.497Z,100153.56
2022-08-19T08:15:12.984Z,100155.06
2022-08-19T08:17:49.513Z,100145.78
2022-08-19T08:20:20.604Z,100146.97
2022-08-19T08:23:07.912Z,100143.75
2022-08-19T08:25:37.316Z,100136.50
2022-08-19T08:28:05.820Z,100136.16
2022-08-19T08:30:35.506Z,100138.34
2022-08-19T08:33:03.872Z,100134.03
2022-08-19T08:35:31.790Z,100123.94
2022-08-19T08:38:00.146Z,100126.09
2022-08-19T08:40:43.470Z,100130.44
2022-08-19T08:43:30.756Z,100112.56
2022-08-19T08:46:05.097Z,100123.97
2022-08-19T08:48:57.315Z,100116.53
2022-08-19T08:51:35.147Z,100110.72
2022-08-19T08:54:07.801Z,100114.75
2022-08-19T08:56:44.003Z,100114.97
2022-08-19T08:59:25.494Z,100112.59
2022-08-19T09:01:53.638Z,100108.91
2022-08-19T09:04:21.411Z,100109.88
2022-08-19T09:07:18.574Z,100117.78
2022-08-19T09:10:25.811Z,100110.09
2022-08-19T09:12:59.417Z,100118.97
2022-08-19T09:15:37.366Z,100107.50
2022-08-19T09:18:07.392Z,100115.50
2022-08-19T09:20:35.475Z,100116.72
2022-08-19T09:23:03.243Z,100123.34
2022-08-19T09:25:35.531Z,100111.34
2022-08-19T09:28:05.674Z,100116.97
2022-08-19T09:30:42.394Z,100106.47
2022-08-19T09:33:10.373Z,100113.38
2022-08-19T09:35:49.866Z,100111.97
2022-08-19T09:38:22.317Z,100110.03
2022-08-19T09:40:51.109Z,100111.00
2022-08-19T09:43:27.813Z,100121.25
2022-08-19T09:46:03.274Z,100121.94
2022-08-19T09:48:30.944Z,100122.25
2022-08-19T09:51:16.106Z,100110.75
2022-08-19T09:53:46.204Z,100113.81
2022-08-19T09:56:14.227Z,100106.22
2022-08-19T09:58:41.826Z,100110.00
2022-08-19T10:01:10.645Z,100116.13
2022-08-19T10:03:38.678Z,100100.69
2022-08-19T10:06:14.709Z,100097.66
2022-08-19T10:08:50.272Z,100095.22
2022-08-19T10:11:28.245Z,100096.91
2022-08-19T10:14:10.913Z,100089.09
2022-08-19T10:16:45.592Z,100085.34
2022-08-19T10:19:25.754Z,100082.00
2022-08-19T10:21:58.947Z,100077.41
2022-08-19T10:24:34.972Z,100066.59
2022-08-19T10:27:08.924Z,100062.88
2022-08-19T10:29:46.260Z,100064.28
2022-08-19T10:32:16.916Z,100052.03
2022-08-19T10:34:48.144Z,100056.47
2022-08-19T10:37:28.910Z,100064.28
2022-08-19T10:40:00.029Z,100062.38
2022-08-19T10:42:27.837Z,100059.44
2022-08-19T10:44:55.572Z,100062.25
2022-08-19T10:47:25.698Z,100072.84
2022-08-19T10:50:14.110Z,100073.00
2022-08-19T10:52:48.903Z,100062.53
2022-08-19T10:55:37.999Z,100058.59
2022-08-19T10:58:18.036Z,100051.63
2022-08-19T11:00:52.163Z,100045.00
2022-08-19T11:03:20.447Z,100036.13
2022-08-19T11:05:49.915Z,100036.63
2022-08-19T11:08:22.115Z,100037.22
2022-08-19T11:11:00.252Z,100048.66
2022-08-19T11:13:46.673Z,100034.88
2022-08-19T11:16:27.152Z,100031.72
2022-08-19T11:18:59.423Z,100042.69
2022-08-19T11:21:33.147Z,100046.25
2022-08-19T11:24:04.093Z,100042.75
2022-08-19T11:26:33.543Z,100039.06
2022-08-19T11:29:01.776Z,100031.81
2022-08-19T11:31:33.106Z,100037.69
2022-08-19T11:34:04.940Z,100042.00
2022-08-19T11:36:35.983Z,100029.97
2022-08-19T11:39:05.328Z,100037.56
2022-08-19T11:41:33.072Z,100025.00
2022-08-19T11:44:01.142Z,100022.47
2022-08-19T11:46:30.660Z,100032.31
2022-08-19T11:49:00.455Z,100024.78
2022-08-19T11:51:29.223Z,100026.13
2022-08-19T11:53:59.323Z,100014.66
2022-08-19T11:56:28.297Z,100014.31
2022-08-19T11:58:57.888Z,100026.28
2022-08-19T12:01:28.062Z,100024.31
2022-08-19T12:03:57.450Z,100022.44
2022-08-19T12:06:30.153Z,100018.47
2022-08-19T12:09:00.850Z,100016.47
2022-08-19T12:11:29.311Z,100015.97
2022-08-19T12:14:02.845Z,100024.09
2022-08-19T12:16:32.890Z,100013.19
2022-08-19T12:19:04.969Z,100014.69
2022-08-19T12:21:36.018Z,100018.75
2022-08-19T12:24:08.506Z,100008.72
2022-08-19T12:26:52.647Z,100000.13
2022-08-19T12:29:23.892Z,99988.00
2022-08-19T12:31:52.788Z,99981.34
2022-08-19T12:34:21.211Z,99982.47
2022-08-19T12:36:50.428Z,99986.00
2022-08-19T12:39:18.691Z,99985.09
2022-08-19T12:41:54.367Z,99980.03
2022-08-19T12:44:29.003Z,99970.84
2022-08-19T12:46:58.142Z,99966.31
2022-08-19T12:49:52.269Z,99964.16
2022-08-19T12:52:17.120Z,99962.13
2022-08-19T12:54:54.117Z,99966.09
2022-08-19T12:57:32.306Z,99964.22
2022-08-19T13:00:15.422Z,99957.66
2022-08-19T13:02:46.691Z,99961.09
2022-08-19T13:05:21.089Z,99953.09
2022-08-19T13:07:49.703Z,99951.97
2022-08-19T13:10:20.701Z,99947.37
2022-08-19T13:12:50.907Z,99947.41
2022-08-19T13:15:23.739Z,99938.78
2022-08-19T13:17:54.210Z,99948.00
2022-08-19T13:20:23.499Z,99950.72
2022-08-19T13:22:51.319Z,99947.50
2022-08-19T13:25:20.909Z,99945.59
2022-08-19T13:27:50.744Z,99941.56
2022-08-19T13:30:37.923Z,99939.94
2022-08-19T13:33:12.423Z,99947.59
2022-08-19T13:35:41.981Z,99944.75
2022-08-19T13:38:11.978Z,99942.50
2022-08-19T13:40:41.588Z,99941.09
2022-08-19T13:43:13.592Z,99934.59
2022-08-19T13:45:56.438Z,99942.97
2022-08-19T13:48:27.505Z,99946.22
2022-08-19T13:50:55.894Z,99945.75
2022-08-19T13:53:24.197Z,99946.06
2022-08-19T13:55:52.192Z,99945.09
2022-08-19T13:58:20.213Z,99936.06
2022-08-19T14:00:49.561Z,99940.84
2022-08-19T14:03:17.567Z,99943.59
2022-08-19T14:05:45.406Z,99945.38
2022-08-19T14:08:15.239Z,99948.44
2022-08-19T14:10:45.789Z,99934.09
2022-08-19T14:13:21.258Z,99934.50
2022-08-19T14:15:50.373Z,99943.22
2022-08-19T14:18:19.967Z,99940.78
2022-08-19T14:20:47.617Z,99945.22
2022-08-19T14:23:15.741Z,99953.66
2022-08-19T14:25:45.499Z,99945.00
2022-08-19T14:28:13.192Z,99947.13
2022-08-19T14:30:41.201Z,99948.78
2022-08-19T14:33:09.552Z,99938.97
2022-08-19T14:35:38.570Z,99945.09
2022-08-19T14:38:15.504Z,99934.88
2022-08-19T14:40:43.177Z,99940.66
2022-08-19T14:43:11.464Z,99938.28
2022-08-19T14:45:40.953Z,99938.91
2022-08-19T14:48:19.109Z,99935.62
2022-08-19T14:50:47.993Z,99939.66
2022-08-19T14:53:17.443Z,99935.13
2022-08-19T14:55:46.921Z,99935.19
2022-08-19T14:58:29.673Z,99941.63
2022-08-19T15:01:00.610Z,99936.31
2022-08-19T15:03:29.496Z,99937.53
2022-08-19T15:05:58.617Z,99929.59
2022-08-19T15:08:28.084Z,99930.72
2022-08-19T15:10:57.594Z,99924.66
2022-08-19T15:13:27.561Z,99916.09
2022-08-19T15:15:56.482Z,99921.16
2022-08-19T15:18:25.163Z,99909.56
2022-08-19T15:20:53.033Z,99914.31
2022-08-19T15:23:22.263Z,99910.09
2022-08-19T15:25:54.482Z,99905.00
2022-08-19T15:28:23.782Z,99903.19
2022-08-19T15:30:52.729Z,99902.63
2022-08-19T15:33:21.298Z,99898.22
2022-08-19T15:35:54.147Z,99892.44
2022-08-19T15:38:23.831Z,99889.06
2022-08-19T15:40:51.716Z,99890.88
2022-08-19T15:43:22.280Z,99885.91
2022-08-19T15:45:50.390Z,99890.62
2022-08-19T15:48:18.052Z,99891.75
2022-08-19T15:50:45.703Z,99889.81
2022-08-19T15:53:13.727Z,99887.37
2022-08-19T15:55:47.596Z,99885.72
2022-08-19T15:58:35.121Z,99884.66
2022-08-19T16:01:27.452Z,99880.56
2022-08-19T16:04:16.627Z,99885.19
2022-08-19T16:06:44.916Z,99880.16
2022-08-19T16:09:13.265Z,99887.78
2022-08-19T16:11:45.633Z,99883.50
2022-08-19T16:14:16.282Z,99879.87
2022-08-19T16:16:46.994Z,99890.94
2022-08-19T16:19:17.998Z,99886.91
2022-08-19T16:21:49.969Z,99894.72
2022-08-19T16:24:21.070Z,99898.50
2022-08-19T16:26:49.310Z,99895.69
2022-08-19T16:29:27.738Z,99889.22
2022-08-19T16:32:04.714Z,99889.66
2022-08-19T16:34:33.609Z,99886.75
2022-08-19T16:37:01.963Z,99887.75
2022-08-19T16:39:30.076Z,99885.38
2022-08-19T16:41:58.190Z,99885.81
2022-08-19T16:44:27.074Z,99897.19
2022-08-19T16:46:59.855Z,99888.31
2022-08-19T16:49:55.280Z,99896.94
2022-08-19T16:52:18.862Z,99907.56
2022-08-19T16:54:47.987Z,99896.94
2022-08-19T16:57:17.979Z,99897.81
2022-08-19T16:59:48.822Z,99910.78
2022-08-19T17:02:18.713Z,99898.69
2022-08-19T17:04:58.286Z,99891.84
2022-08-19T17:07:27.267Z,99889.69
2022-08-19T17:09:56.405Z,99886.03
2022-08-19T17:12:30.616Z,99885.03
2022-08-19T17:15:02.570Z,99888.06
2022-08-19T17:17:34.247Z,99885.16
2022-08-19T17:20:03.374Z,99891.63
2022-08-19T17:22:31.177Z,99895.22
2022-08-19T17:24:58.834Z,99896.06
2022-08-19T17:27:31.308Z,99902.66
2022-08-19T17:30:03.022Z,99901.56
2022-08-19T17:32:34.400Z,99897.75
2022-08-19T17:35:04.708Z,99895.94
2022-08-19T17:37:34.229Z,99899.91
2022-08-19T17:40:07.857Z,99897.72
2022-08-19T17:42:36.786Z,99905.31
2022-08-19T17:45:05.544Z,99914.16
2022-08-19T17:47:33.841Z,99915.13
2022-08-19T17:50:07.144Z,99910.34
2022-08-19T17:52:36.044Z,99911.97
2022-08-19T17:55:05.196Z,99913.06
2022-08-19T17:57:33.623Z,99910.53
2022-08-19T18:00:12.237Z,99920.34
2022-08-19T18:02:56.803Z,99911.44
2022-08-19T18:05:29.651Z,99911.72
2022-08-19T18:07:59.166Z,99913.84
2022-08-19T18:10:34.737Z,99911.34
2022-08-19T18:13:17.161Z,99906.12
2022-08-19T18:15:45.647Z,99907.13
2022-08-19T18:18:15.379Z,99914.91
2022-08-19T18:20:44.378Z,99912.28
2022-08-19T18:23:45.601Z,99911.00
2022-08-19T18:26:01.159Z,99922.22
2022-08-19T18:28:29.195Z,99915.72
2022-08-19T18:30:59.665Z,99917.34
2022-08-19T18:33:27.625Z,99916.66
2022-08-19T18:35:55.633Z,99913.28
2022-08-19T18:38:42.043Z,99908.00
2022-08-19T18:41:29.684Z,99913.97
2022-08-19T18:44:15.916Z,99913.97
2022-08-19T18:47:02.852Z,99913.44
2022-08-19T18:49:33.228Z,99920.00
2022-08-19T18:52:03.222Z,99912.56
2022-08-19T18:54:30.988Z,99914.22
2022-08-19T18:56:59.094Z,99917.66
2022-08-19T18:59:29.031Z,99914.16
2022-08-19T19:01:58.944Z,99918.72
2022-08-19T19:04:35.327Z,99915.88
2022-08-19T19:07:05.596Z,99911.38
2022-08-19T19:09:34.253Z,99913.53
2022-08-19T19:12:05.367Z,99913.94
2022-08-19T19:14:51.224Z,99919.41
2022-08-19T19:17:23.000Z,99924.41
2022-08-19T19:19:51.055Z,99924.41
2022-08-19T19:22:22.105Z,99926.00
2022-08-19T19:24:50.883Z,99929.66
2022-08-19T19:27:20.621Z,99930.00
2022-08-19T19:29:52.823Z,99922.63
2022-08-19T19:32:25.001Z,99918.94
2022-08-19T19:34:53.029Z,99914.12
2022-08-19T19:37:22.552Z,99926.78
2022-08-19T19:39:50.691Z,99935.84
2022-08-19T19:42:22.703Z,99937.56
2022-08-19T19:44:52.613Z,99944.03
2022-08-19T19:47:21.448Z,99947.41
2022-08-19T19:50:13.245Z,99944.19
2022-08-19T19:52:41.066Z,99950.34
2022-08-19T19:55:10.036Z,99953.53
2022-08-19T19:57:39.347Z,99956.97
2022-08-19T20:00:13.024Z,99953.59
2022-08-19T20:02:41.213Z,99951.34
2022-08-19T20:05:09.392Z,99954.63
2022-08-19T20:07:56.941Z,99956.75
2022-08-19T20:10:26.353Z,99957.00
2022-08-19T20:12:54.932Z,99956.53
2022-08-19T20:15:22.726Z,99947.31
2022-08-19T20:17:51.208Z,99950.13
2022-08-19T20:20:19.432Z,99951.50
2022-08-19T20:22:47.636Z,99943.06
2022-08-19T20:25:17.640Z,99941.31
2022-08-19T20:27:51.048Z,99944.06
2022-08-19T20:30:23.168Z,99944.91
2022-08-19T20:32:51.212Z,99952.91
2022-08-19T20:35:21.324Z,99951.47
2022-08-19T20:37:52.853Z,99950.06
2022-08-19T20:40:24.189Z,99953.38
2022-08-19T20:42:51.890Z,99961.03
2022-08-19T20:45:33.090Z,99955.00
2022-08-19T20:48:03.676Z,99965.72
2022-08-19T20:50:34.985Z,99969.38
2022-08-19T20:53:14.491Z,99978.78
2022-08-19T20:55:49.250Z,99985.53
2022-08-19T20:58:22.509Z,99983.41
2022-08-19T21:00:51.706Z,99988.19
2022-08-19T21:03:22.455Z,99971.34
2022-08-19T21:05:50.771Z,99974.25
2022-08-19T21:08:18.510Z,99967.28
2022-08-19T21:10:48.539Z,99967.06
2022-08-19T21:13:17.420Z,99962.09
2022-08-19T21:15:45.333Z,99960.84
2022-08-19T21:18:16.170Z,99962.87
2022-08-19T21:20:44.690Z,99971.22
2022-08-19T21:23:16.175Z,99970.03
2022-08-19T21:25:54.454Z,99980.25
2022-08-19T21:28:34.347Z,99986.84
2022-08-19T21:31:06.778Z,99985.16
2022-08-19T21:33:34.464Z,99989.25
2022-08-19T21:36:03.180Z,99987.69
2022-08-19T21:38:31.985Z,99993.87
2022-08-19T21:41:00.983Z,99990.06
2022-08-19T21:43:35.802Z,100000.19
2022-08-19T21:46:04.145Z,99998.50
2022-08-19T21:48:31.956Z,99996.44
2022-08-19T21:50:59.975Z,99993.00
2022-08-19T21:53:31.529Z,99990.06
2022-08-19T21:56:03.767Z,99978.09
2022-08-19T21:58:31.516Z,99984.56
2022-08-19T22:01:06.180Z,99977.87
2022-08-19T22:03:36.272Z,99976.22
2022-08-19T22:06:04.315Z,99979.94
2022-08-19T22:08:32.120Z,99990.00
2022-08-19T22:11:00.204Z,99992.78
2022-08-19T22:13:36.864Z,100004.94
2022-08-19T22:16:08.478Z,100009.97
2022-08-19T22:18:36.202Z,100011.44
2022-08-19T22:21:07.252Z,100006.47
2022-08-19T22:23:37.594Z,100004.75
2022-08-19T22:26:06.670Z,100012.84
2022-08-19T22:28:34.362Z,100006.87
2022-08-19T22:31:02.650Z,100000.59
2022-08-19T22:33:32.386Z,99987.13
2022-08-19T22:36:00.986Z,99972.97
2022-08-19T22:38:29.051Z,99967.62
2022-08-19T22:40:57.335Z,99961.34
2022-08-19T22:43:30.075Z,99964.78
2022-08-19T22:45:59.384Z,99975.19
2022-08-19T22:48:30.342Z,99982.09
2022-08-19T22:51:18.204Z,99982.88
2022-08-19T22:53:47.281Z,99991.19
2022-08-19T22:56:20.917Z,99977.38
2022-08-19T22:58:50.736Z,99976.25
2022-08-19T23:01:30.433Z,99965.22
2022-08-19T23:04:00.118Z,99964.03
2022-08-19T23:06:33.881Z,99963.72
2022-08-19T23:09:06.469Z,99969.84
2022-08-19T23:11:38.255Z,99972.13
2022-08-19T23:14:11.493Z,99972.13
2022-08-19T23:16:41.547Z,99977.84
2022-08-19T23:19:10.930Z,99976.72
2022-08-19T23:21:40.632Z,99985.44
2022-08-19T23:24:09.314Z,99996.50
2022-08-19T23:26:37.495Z,100011.81
2022-08-19T23:29:24.340Z,100009.16
2022-08-19T23:31:52.163Z,100001.81
2022-08-19T23:34:20.331Z,100008.72
2022-08-19T23:36:50.798Z,100017.94
2022-08-19T23:39:19.473Z,100019.06
2022-08-19T23:41:47.628Z,100013.72
2022-08-19T23:44:15.287Z,100017.22
2022-08-19T23:46:55.052Z,100016.47
2022-08-19T23:49:25.117Z,100018.78
2022-08-19T23:51:55.447Z,100018.00
2022-08-19T23:54:34.406Z,100023.34
2022-08-19T23:57:13.921Z,100016.44
2022-08-19T23:59:45.612Z,100003.50
